sensor_id;sensor_type;location;lat;lon;timestamp;temperature;humidity
21662;DHT22;10992;48.170;8.596;2023-02-11T00:00:41;-3.90;99.90
21662;DHT22;10992;48.170;8.596;2023-02-11T00:03:08;-3.80;99.90
21662;DHT22;10992;48.170;8.596;2023-02-11T00:05:36;-3.70;99.90
21662;DHT22;10992;48.170;8.596;2023-02-11T00:08:03;-3.60;99.90
21662;DHT22;10992;48.170;8.596;2023-02-11T00:10:30;-3.70;99.90
21662;DHT22;10992;48.170;8.596;2023-02-11T00:12:57;-3.70;99.90
21662;DHT22;10992;48.170;8.596;2023-02-11T00:15:24;-3.70;99.90
21662;DHT22;10992;48.170;8.596;2023-02-11T00:17:52;-3.90;99.90
21662;DHT22;10992;48.170;8.596;2023-02-11T00:20:19;-4.00;99.90
21662;DHT22;10992;48.170;8.596;2023-02-11T00:22:48;-3.90;99.90
21662;DHT22;10992;48.170;8.596;2023-02-11T00:25:16;-3.90;99.90
21662;DHT22;10992;48.170;8.596;2023-02-11T00:27:43;-4.30;99.90
21662;DHT22;10992;48.170;8.596;2023-02-11T00:30:11;-4.40;99.90
21662;DHT22;10992;48.170;8.596;2023-02-11T00:32:38;-4.40;99.90
21662;DHT22;10992;48.170;8.596;2023-02-11T00:35:08;-4.40;99.90
21662;DHT22;10992;48.170;8.596;2023-02-11T00:37:35;-4.20;99.90
21662;DHT22;10992;48.170;8.596;2023-02-11T00:40:06;-4.20;99.90
21662;DHT22;10992;48.170;8.596;2023-02-11T00:42:33;-4.20;99.90
21662;DHT22;10992;48.170;8.596;2023-02-11T00:45:01;-4.40;99.90
21662;DHT22;10992;48.170;8.596;2023-02-11T00:47:28;-4.60;99.90
21662;DHT22;10992;48.170;8.596;2023-02-11T00:49:55;-4.80;99.90
21662;DHT22;10992;48.170;8.596;2023-02-11T00:52:22;-4.90;99.90
21662;DHT22;10992;48.170;8.596;2023-02-11T00:54:49;-5.00;99.90
21662;DHT22;10992;48.170;8.596;2023-02-11T00:57:17;-5.00;99.90
21662;DHT22;10992;48.170;8.596;2023-02-11T00:59:44;-5.00;99.90
21662;DHT22;10992;48.170;8.596;2023-02-11T01:02:11;-5.10;99.90
21662;DHT22;10992;48.170;8.596;2023-02-11T01:04:38;-5.20;99.90
21662;DHT22;10992;48.170;8.596;2023-02-11T01:07:06;-5.30;99.90
21662;DHT22;10992;48.170;8.596;2023-02-11T01:09:33;-5.20;99.90
21662;DHT22;10992;48.170;8.596;2023-02-11T01:12:00;-5.30;99.90
21662;DHT22;10992;48.170;8.596;2023-02-11T01:14:27;-5.40;99.90
21662;DHT22;10992;48.170;8.596;2023-02-11T01:16:54;-5.40;99.90
21662;DHT22;10992;48.170;8.596;2023-02-11T01:19:21;-5.40;99.90
21662;DHT22;10992;48.170;8.596;2023-02-11T01:21:48;-5.30;99.90
21662;DHT22;10992;48.170;8.596;2023-02-11T01:24:20;-5.40;99.90
21662;DHT22;10992;48.170;8.596;2023-02-11T01:26:47;-5.40;99.90
21662;DHT22;10992;48.170;8.596;2023-02-11T01:29:14;-5.40;99.90
21662;DHT22;10992;48.170;8.596;2023-02-11T01:31:41;-5.30;99.90
21662;DHT22;10992;48.170;8.596;2023-02-11T01:34:08;-5.20;99.90
21662;DHT22;10992;48.170;8.596;2023-02-11T01:36:36;-5.20;99.90
21662;DHT22;10992;48.170;8.596;2023-02-11T01:39:03;-5.10;99.90
21662;DHT22;10992;48.170;8.596;2023-02-11T01:41:30;-4.90;99.90
21662;DHT22;10992;48.170;8.596;2023-02-11T01:43:57;-4.90;99.90
21662;DHT22;10992;48.170;8.596;2023-02-11T01:46:34;-4.90;99.90
21662;DHT22;10992;48.170;8.596;2023-02-11T01:49:11;-4.80;99.90
21662;DHT22;10992;48.170;8.596;2023-02-11T01:51:57;-4.80;99.90
21662;DHT22;10992;48.170;8.596;2023-02-11T01:54:31;-4.60;99.90
21662;DHT22;10992;48.170;8.596;2023-02-11T01:57:19;-4.50;99.90
21662;DHT22;10992;48.170;8.596;2023-02-11T02:02:48;-5.00;99.90
21662;DHT22;10992;48.170;8.596;2023-02-11T02:06:23;-5.20;99.90
21662;DHT22;10992;48.170;8.596;2023-02-11T02:11:30;-5.40;99.90
21662;DHT22;10992;48.170;8.596;2023-02-11T02:13:57;-5.50;99.90
21662;DHT22;10992;48.170;8.596;2023-02-11T02:16:38;-5.50;99.90
21662;DHT22;10992;48.170;8.596;2023-02-11T02:22:32;-2.60;99.90
21662;DHT22;10992;48.170;8.596;2023-02-11T02:25:46;-4.90;99.90
21662;DHT22;10992;48.170;8.596;2023-02-11T02:28:35;-5.00;99.90
21662;DHT22;10992;48.170;8.596;2023-02-11T02:33:49;-5.10;99.90
21662;DHT22;10992;48.170;8.596;2023-02-11T02:36:36;-5.20;99.90
21662;DHT22;10992;48.170;8.596;2023-02-11T02:39:25;-5.30;99.90
21662;DHT22;10992;48.170;8.596;2023-02-11T02:41:54;-5.40;99.90
21662;DHT22;10992;48.170;8.596;2023-02-11T02:44:21;-5.20;99.90
21662;DHT22;10992;48.170;8.596;2023-02-11T02:46:48;-5.10;99.90
21662;DHT22;10992;48.170;8.596;2023-02-11T02:49:15;-5.10;99.90
21662;DHT22;10992;48.170;8.596;2023-02-11T02:54:48;-4.90;99.90
21662;DHT22;10992;48.170;8.596;2023-02-11T03:00:16;-5.20;99.90
21662;DHT22;10992;48.170;8.596;2023-02-11T03:03:15;-5.30;99.90
21662;DHT22;10992;48.170;8.596;2023-02-11T03:11:10;-5.50;99.90
21662;DHT22;10992;48.170;8.596;2023-02-11T03:13:39;-5.60;99.90
21662;DHT22;10992;48.170;8.596;2023-02-11T03:16:27;-5.50;99.90
21662;DHT22;10992;48.170;8.596;2023-02-11T03:19:03;-5.30;99.90
21662;DHT22;10992;48.170;8.596;2023-02-11T03:21:32;-5.30;99.90
21662;DHT22;10992;48.170;8.596;2023-02-11T03:24:06;-5.10;99.90
21662;DHT22;10992;48.170;8.596;2023-02-11T03:26:42;-5.20;99.90
21662;DHT22;10992;48.170;8.596;2023-02-11T03:29:17;-5.10;99.90
21662;DHT22;10992;48.170;8.596;2023-02-11T03:31:58;-4.80;99.90
21662;DHT22;10992;48.170;8.596;2023-02-11T03:34:41;-4.80;99.90
21662;DHT22;10992;48.170;8.596;2023-02-11T03:37:32;-4.80;99.90
21662;DHT22;10992;48.170;8.596;2023-02-11T03:40:02;-4.90;99.90
21662;DHT22;10992;48.170;8.596;2023-02-11T03:42:38;-5.10;99.90
21662;DHT22;10992;48.170;8.596;2023-02-11T03:45:12;-5.30;99.90
21662;DHT22;10992;48.170;8.596;2023-02-11T03:47:45;-5.20;99.90
21662;DHT22;10992;48.170;8.596;2023-02-11T03:50:14;-5.00;99.90
21662;DHT22;10992;48.170;8.596;2023-02-11T03:52:41;-5.00;99.90
21662;DHT22;10992;48.170;8.596;2023-02-11T03:55:14;-5.10;99.90
21662;DHT22;10992;48.170;8.596;2023-02-11T03:57:41;-5.30;99.90
21662;DHT22;10992;48.170;8.596;2023-02-11T04:00:09;-5.30;99.90
21662;DHT22;10992;48.170;8.596;2023-02-11T04:02:38;-5.40;99.90
21662;DHT22;10992;48.170;8.596;2023-02-11T04:05:07;-5.50;99.90
21662;DHT22;10992;48.170;8.596;2023-02-11T04:07:34;-5.60;99.90
21662;DHT22;10992;48.170;8.596;2023-02-11T04:10:01;-5.70;99.90
21662;DHT22;10992;48.170;8.596;2023-02-11T04:12:28;-5.70;99.90
21662;DHT22;10992;48.170;8.596;2023-02-11T04:14:55;-5.70;99.90
21662;DHT22;10992;48.170;8.596;2023-02-11T04:17:23;-5.60;99.90
21662;DHT22;10992;48.170;8.596;2023-02-11T04:19:50;-5.70;99.90
21662;DHT22;10992;48.170;8.596;2023-02-11T04:22:17;-5.70;99.90
21662;DHT22;10992;48.170;8.596;2023-02-11T04:24:44;-5.70;99.90
21662;DHT22;10992;48.170;8.596;2023-02-11T04:27:11;-5.70;99.90
21662;DHT22;10992;48.170;8.596;2023-02-11T04:29:38;-5.70;99.90
21662;DHT22;10992;48.170;8.596;2023-02-11T04:32:05;-5.70;99.90
21662;DHT22;10992;48.170;8.596;2023-02-11T04:34:32;-5.70;99.90
21662;DHT22;10992;48.170;8.596;2023-02-11T04:36:59;-5.70;99.90
21662;DHT22;10992;48.170;8.596;2023-02-11T04:39:26;-5.70;99.90
21662;DHT22;10992;48.170;8.596;2023-02-11T04:41:53;-5.80;99.90
21662;DHT22;10992;48.170;8.596;2023-02-11T04:44:20;-5.80;99.90
21662;DHT22;10992;48.170;8.596;2023-02-11T04:46:47;-5.80;99.90
21662;DHT22;10992;48.170;8.596;2023-02-11T04:49:15;-5.90;99.90
21662;DHT22;10992;48.170;8.596;2023-02-11T04:51:43;-5.90;99.90
21662;DHT22;10992;48.170;8.596;2023-02-11T04:54:15;-5.80;99.90
21662;DHT22;10992;48.170;8.596;2023-02-11T04:56:43;-5.60;99.90
21662;DHT22;10992;48.170;8.596;2023-02-11T04:59:10;-5.60;99.90
21662;DHT22;10992;48.170;8.596;2023-02-11T05:01:39;-5.70;99.90
21662;DHT22;10992;48.170;8.596;2023-02-11T05:04:06;-5.60;99.90
21662;DHT22;10992;48.170;8.596;2023-02-11T05:06:33;-5.70;99.90
21662;DHT22;10992;48.170;8.596;2023-02-11T05:09:00;-5.70;99.90
21662;DHT22;10992;48.170;8.596;2023-02-11T05:11:27;-5.60;99.90
21662;DHT22;10992;48.170;8.596;2023-02-11T05:13:54;-5.40;99.90
21662;DHT22;10992;48.170;8.596;2023-02-11T05:16:21;-5.40;99.90
21662;DHT22;10992;48.170;8.596;2023-02-11T05:18:48;-5.10;99.90
21662;DHT22;10992;48.170;8.596;2023-02-11T05:21:18;-5.20;99.90
21662;DHT22;10992;48.170;8.596;2023-02-11T05:23:46;-5.10;99.90
21662;DHT22;10992;48.170;8.596;2023-02-11T05:26:13;-5.00;99.90
21662;DHT22;10992;48.170;8.596;2023-02-11T05:28:41;-5.10;99.90
21662;DHT22;10992;48.170;8.596;2023-02-11T05:31:08;-5.10;99.90
21662;DHT22;10992;48.170;8.596;2023-02-11T05:33:35;-5.10;99.90
21662;DHT22;10992;48.170;8.596;2023-02-11T05:36:09;-4.80;99.90
21662;DHT22;10992;48.170;8.596;2023-02-11T05:38:37;-4.70;99.90
21662;DHT22;10992;48.170;8.596;2023-02-11T05:41:05;-4.60;99.90
21662;DHT22;10992;48.170;8.596;2023-02-11T05:43:32;-4.60;99.90
21662;DHT22;10992;48.170;8.596;2023-02-11T05:46:04;-4.50;99.90
21662;DHT22;10992;48.170;8.596;2023-02-11T05:48:32;-4.50;99.90
21662;DHT22;10992;48.170;8.596;2023-02-11T05:50:59;-4.70;99.90
21662;DHT22;10992;48.170;8.596;2023-02-11T05:53:26;-4.90;99.90
21662;DHT22;10992;48.170;8.596;2023-02-11T05:55:53;-4.90;99.90
21662;DHT22;10992;48.170;8.596;2023-02-11T05:58:20;-4.80;99.90
21662;DHT22;10992;48.170;8.596;2023-02-11T06:00:47;-4.60;99.90
21662;DHT22;10992;48.170;8.596;2023-02-11T06:03:14;-4.60;99.90
21662;DHT22;10992;48.170;8.596;2023-02-11T06:05:43;-4.40;99.90
21662;DHT22;10992;48.170;8.596;2023-02-11T06:08:10;-4.40;99.90
21662;DHT22;10992;48.170;8.596;2023-02-11T06:10:38;-4.40;99.90
21662;DHT22;10992;48.170;8.596;2023-02-11T06:13:05;-4.20;99.90
21662;DHT22;10992;48.170;8.596;2023-02-11T06:15:32;-4.00;99.90
21662;DHT22;10992;48.170;8.596;2023-02-11T06:17:59;-3.90;99.90
21662;DHT22;10992;48.170;8.596;2023-02-11T06:20:26;-3.80;99.90
21662;DHT22;10992;48.170;8.596;2023-02-11T06:22:53;-3.50;99.90
21662;DHT22;10992;48.170;8.596;2023-02-11T06:25:20;-3.50;99.90
21662;DHT22;10992;48.170;8.596;2023-02-11T06:27:47;-3.40;99.90
21662;DHT22;10992;48.170;8.596;2023-02-11T06:30:15;-3.60;99.90
21662;DHT22;10992;48.170;8.596;2023-02-11T06:32:42;-3.60;99.90
21662;DHT22;10992;48.170;8.596;2023-02-11T06:35:13;-3.60;99.90
21662;DHT22;10992;48.170;8.596;2023-02-11T06:37:40;-3.70;99.90
21662;DHT22;10992;48.170;8.596;2023-02-11T06:40:09;-3.70;99.90
21662;DHT22;10992;48.170;8.596;2023-02-11T06:42:36;-3.80;99.90
21662;DHT22;10992;48.170;8.596;2023-02-11T06:45:06;-3.80;99.90
21662;DHT22;10992;48.170;8.596;2023-02-11T06:47:35;-3.80;99.90
21662;DHT22;10992;48.170;8.596;2023-02-11T06:50:04;-3.90;99.90
21662;DHT22;10992;48.170;8.596;2023-02-11T06:52:32;-4.00;99.90
21662;DHT22;10992;48.170;8.596;2023-02-11T06:54:59;-4.10;99.90
21662;DHT22;10992;48.170;8.596;2023-02-11T06:57:26;-4.00;99.90
21662;DHT22;10992;48.170;8.596;2023-02-11T06:59:54;-4.00;99.90
21662;DHT22;10992;48.170;8.596;2023-02-11T07:02:21;-4.00;99.90
21662;DHT22;10992;48.170;8.596;2023-02-11T07:04:48;-3.90;99.90
21662;DHT22;10992;48.170;8.596;2023-02-11T07:07:15;-3.80;99.90
21662;DHT22;10992;48.170;8.596;2023-02-11T07:09:42;-3.80;99.90
21662;DHT22;10992;48.170;8.596;2023-02-11T07:12:09;-3.20;99.90
21662;DHT22;10992;48.170;8.596;2023-02-11T07:14:36;-2.90;99.90
21662;DHT22;10992;48.170;8.596;2023-02-11T07:17:04;-2.80;99.90
21662;DHT22;10992;48.170;8.596;2023-02-11T07:19:31;-2.90;99.90
21662;DHT22;10992;48.170;8.596;2023-02-11T07:21:58;-3.00;99.90
21662;DHT22;10992;48.170;8.596;2023-02-11T07:24:25;-3.00;99.90
21662;DHT22;10992;48.170;8.596;2023-02-11T07:26:53;-3.10;99.90
21662;DHT22;10992;48.170;8.596;2023-02-11T07:29:20;-3.10;99.90
21662;DHT22;10992;48.170;8.596;2023-02-11T07:31:47;-3.10;99.90
21662;DHT22;10992;48.170;8.596;2023-02-11T07:34:14;-3.00;99.90
21662;DHT22;10992;48.170;8.596;2023-02-11T07:36:45;-2.80;99.90
21662;DHT22;10992;48.170;8.596;2023-02-11T07:39:12;-2.80;99.90
21662;DHT22;10992;48.170;8.596;2023-02-11T07:41:41;-2.80;99.90
21662;DHT22;10992;48.170;8.596;2023-02-11T07:44:09;-2.80;99.90
21662;DHT22;10992;48.170;8.596;2023-02-11T07:46:36;-2.70;99.90
21662;DHT22;10992;48.170;8.596;2023-02-11T07:49:03;-2.70;99.90
21662;DHT22;10992;48.170;8.596;2023-02-11T07:51:30;-2.60;99.90
21662;DHT22;10992;48.170;8.596;2023-02-11T07:53:58;-2.60;99.90
21662;DHT22;10992;48.170;8.596;2023-02-11T07:56:26;-2.50;99.90
21662;DHT22;10992;48.170;8.596;2023-02-11T07:58:55;-2.40;99.90
21662;DHT22;10992;48.170;8.596;2023-02-11T08:01:25;-2.20;99.90
21662;DHT22;10992;48.170;8.596;2023-02-11T08:03:55;-2.10;99.90
21662;DHT22;10992;48.170;8.596;2023-02-11T08:06:25;-2.00;99.90
21662;DHT22;10992;48.170;8.596;2023-02-11T08:08:52;-2.00;99.90
21662;DHT22;10992;48.170;8.596;2023-02-11T08:11:27;-1.90;99.90
21662;DHT22;10992;48.170;8.596;2023-02-11T08:13:55;-1.80;99.90
21662;DHT22;10992;48.170;8.596;2023-02-11T08:16:25;-1.70;99.90
21662;DHT22;10992;48.170;8.596;2023-02-11T08:18:56;-1.60;99.90
21662;DHT22;10992;48.170;8.596;2023-02-11T08:21:23;-1.50;99.90
21662;DHT22;10992;48.170;8.596;2023-02-11T08:23:51;-1.40;99.90
21662;DHT22;10992;48.170;8.596;2023-02-11T08:26:22;-1.30;99.90
21662;DHT22;10992;48.170;8.596;2023-02-11T08:28:51;-1.30;99.90
21662;DHT22;10992;48.170;8.596;2023-02-11T08:31:21;-1.20;99.90
21662;DHT22;10992;48.170;8.596;2023-02-11T08:33:49;-1.30;99.90
21662;DHT22;10992;48.170;8.596;2023-02-11T08:36:20;-1.10;99.90
21662;DHT22;10992;48.170;8.596;2023-02-11T08:38:48;-1.10;99.90
21662;DHT22;10992;48.170;8.596;2023-02-11T08:41:16;-0.90;99.90
21662;DHT22;10992;48.170;8.596;2023-02-11T08:43:45;-0.80;99.90
21662;DHT22;10992;48.170;8.596;2023-02-11T08:46:14;-0.60;99.90
21662;DHT22;10992;48.170;8.596;2023-02-11T08:48:42;-0.30;99.90
21662;DHT22;10992;48.170;8.596;2023-02-11T08:51:13;-0.20;99.90
21662;DHT22;10992;48.170;8.596;2023-02-11T08:53:40;0.10;99.90
21662;DHT22;10992;48.170;8.596;2023-02-11T08:56:09;0.30;99.90
21662;DHT22;10992;48.170;8.596;2023-02-11T08:58:39;0.50;99.90
21662;DHT22;10992;48.170;8.596;2023-02-11T09:01:13;0.80;99.90
21662;DHT22;10992;48.170;8.596;2023-02-11T09:03:41;1.00;99.90
21662;DHT22;10992;48.170;8.596;2023-02-11T09:06:09;1.30;99.90
21662;DHT22;10992;48.170;8.596;2023-02-11T09:08:38;1.20;99.90
21662;DHT22;10992;48.170;8.596;2023-02-11T09:11:06;1.20;99.90
21662;DHT22;10992;48.170;8.596;2023-02-11T09:13:34;1.30;99.90
21662;DHT22;10992;48.170;8.596;2023-02-11T09:16:03;1.20;99.90
21662;DHT22;10992;48.170;8.596;2023-02-11T09:18:31;1.00;99.90
21662;DHT22;10992;48.170;8.596;2023-02-11T09:21:06;0.80;99.90
21662;DHT22;10992;48.170;8.596;2023-02-11T09:23:34;0.90;99.90
21662;DHT22;10992;48.170;8.596;2023-02-11T09:26:06;0.60;99.90
21662;DHT22;10992;48.170;8.596;2023-02-11T09:28:35;0.40;99.90
21662;DHT22;10992;48.170;8.596;2023-02-11T09:31:10;0.30;99.90
21662;DHT22;10992;48.170;8.596;2023-02-11T09:33:39;0.20;99.90
21662;DHT22;10992;48.170;8.596;2023-02-11T09:36:08;0.40;99.90
21662;DHT22;10992;48.170;8.596;2023-02-11T09:38:35;0.50;99.90
21662;DHT22;10992;48.170;8.596;2023-02-11T09:41:02;0.80;99.90
21662;DHT22;10992;48.170;8.596;2023-02-11T09:43:42;1.10;99.90
21662;DHT22;10992;48.170;8.596;2023-02-11T09:46:14;1.10;99.90
21662;DHT22;10992;48.170;8.596;2023-02-11T09:48:44;1.00;99.90
21662;DHT22;10992;48.170;8.596;2023-02-11T09:51:42;1.00;99.90
21662;DHT22;10992;48.170;8.596;2023-02-11T09:54:14;1.30;99.90
21662;DHT22;10992;48.170;8.596;2023-02-11T09:56:43;2.10;99.90
21662;DHT22;10992;48.170;8.596;2023-02-11T09:59:15;3.00;99.90
21662;DHT22;10992;48.170;8.596;2023-02-11T10:07:36;4.00;99.90
21662;DHT22;10992;48.170;8.596;2023-02-11T10:11:05;3.60;99.90
21662;DHT22;10992;48.170;8.596;2023-02-11T10:15:56;3.30;99.90
21662;DHT22;10992;48.170;8.596;2023-02-11T10:21:44;3.60;99.90
21662;DHT22;10992;48.170;8.596;2023-02-11T10:24:16;3.80;99.90
21662;DHT22;10992;48.170;8.596;2023-02-11T10:26:44;4.40;99.90
21662;DHT22;10992;48.170;8.596;2023-02-11T10:31:58;5.90;99.90
21662;DHT22;10992;48.170;8.596;2023-02-11T10:34:26;6.40;99.90
21662;DHT22;10992;48.170;8.596;2023-02-11T10:36:53;6.80;99.90
21662;DHT22;10992;48.170;8.596;2023-02-11T10:39:22;6.80;99.90
21662;DHT22;10992;48.170;8.596;2023-02-11T10:42:01;6.90;99.90
21662;DHT22;10992;48.170;8.596;2023-02-11T10:44:48;6.90;99.90
21662;DHT22;10992;48.170;8.596;2023-02-11T10:47:24;7.30;99.90
21662;DHT22;10992;48.170;8.596;2023-02-11T10:49:53;7.50;99.90
21662;DHT22;10992;48.170;8.596;2023-02-11T10:57:27;7.40;99.90
21662;DHT22;10992;48.170;8.596;2023-02-11T11:00:04;7.50;99.90
21662;DHT22;10992;48.170;8.596;2023-02-11T11:02:34;8.10;99.90
21662;DHT22;10992;48.170;8.596;2023-02-11T11:05:06;8.20;99.90
21662;DHT22;10992;48.170;8.596;2023-02-11T11:07:50;7.60;99.90
21662;DHT22;10992;48.170;8.596;2023-02-11T11:13:38;8.00;99.90
21662;DHT22;10992;48.170;8.596;2023-02-11T11:18:44;8.50;99.90
21662;DHT22;10992;48.170;8.596;2023-02-11T11:23:48;8.90;99.90
21662;DHT22;10992;48.170;8.596;2023-02-11T11:26:17;8.70;99.90
21662;DHT22;10992;48.170;8.596;2023-02-11T11:29:06;9.50;99.90
21662;DHT22;10992;48.170;8.596;2023-02-11T11:31:45;9.30;99.90
21662;DHT22;10992;48.170;8.596;2023-02-11T11:34:28;9.10;99.90
21662;DHT22;10992;48.170;8.596;2023-02-11T11:36:59;9.00;99.90
21662;DHT22;10992;48.170;8.596;2023-02-11T11:39:29;9.20;99.90
21662;DHT22;10992;48.170;8.596;2023-02-11T11:41:59;10.00;99.90
21662;DHT22;10992;48.170;8.596;2023-02-11T11:44:32;9.90;99.90
21662;DHT22;10992;48.170;8.596;2023-02-11T11:52:49;11.00;99.90
21662;DHT22;10992;48.170;8.596;2023-02-11T11:55:30;10.30;99.90
21662;DHT22;10992;48.170;8.596;2023-02-11T11:57:57;10.00;99.90
21662;DHT22;10992;48.170;8.596;2023-02-11T12:00:52;10.50;99.90
21662;DHT22;10992;48.170;8.596;2023-02-11T12:06:38;11.00;99.90
21662;DHT22;10992;48.170;8.596;2023-02-11T12:14:57;11.10;99.90
21662;DHT22;10992;48.170;8.596;2023-02-11T12:18:04;12.00;99.90
21662;DHT22;10992;48.170;8.596;2023-02-11T12:26:18;11.60;99.90
21662;DHT22;10992;48.170;8.596;2023-02-11T12:29:04;11.60;99.90
21662;DHT22;10992;48.170;8.596;2023-02-11T12:52:07;13.30;99.90
21662;DHT22;10992;48.170;8.596;2023-02-11T12:54:54;12.90;99.90
21662;DHT22;10992;48.170;8.596;2023-02-11T12:57:25;13.00;99.90
21662;DHT22;10992;48.170;8.596;2023-02-11T13:02:51;13.30;99.90
21662;DHT22;10992;48.170;8.596;2023-02-11T13:05:44;13.80;99.90
21662;DHT22;10992;48.170;8.596;2023-02-11T13:10:49;14.40;99.90
21662;DHT22;10992;48.170;8.596;2023-02-11T13:16:34;15.80;99.90
21662;DHT22;10992;48.170;8.596;2023-02-11T13:21:56;14.40;99.90
21662;DHT22;10992;48.170;8.596;2023-02-11T13:24:42;15.20;99.90
21662;DHT22;10992;48.170;8.596;2023-02-11T13:27:39;14.80;99.90
21662;DHT22;10992;48.170;8.596;2023-02-11T13:30:35;15.00;99.90
21662;DHT22;10992;48.170;8.596;2023-02-11T13:33:38;14.40;97.70
21662;DHT22;10992;48.170;8.596;2023-02-11T13:38:32;15.20;99.60
21662;DHT22;10992;48.170;8.596;2023-02-11T13:41:16;15.00;98.60
21662;DHT22;10992;48.170;8.596;2023-02-11T13:43:44;15.10;99.10
21662;DHT22;10992;48.170;8.596;2023-02-11T13:46:22;15.30;97.90
21662;DHT22;10992;48.170;8.596;2023-02-11T13:48:51;15.60;97.90
21662;DHT22;10992;48.170;8.596;2023-02-11T13:51:36;15.10;98.40
21662;DHT22;10992;48.170;8.596;2023-02-11T13:54:05;15.20;99.70
21662;DHT22;10992;48.170;8.596;2023-02-11T13:56:38;15.60;98.20
21662;DHT22;10992;48.170;8.596;2023-02-11T14:11:01;16.30;95.20
21662;DHT22;10992;48.170;8.596;2023-02-11T14:13:33;15.90;93.30
21662;DHT22;10992;48.170;8.596;2023-02-11T14:16:14;16.50;93.40
21662;DHT22;10992;48.170;8.596;2023-02-11T14:26:49;15.00;96.80
21662;DHT22;10992;48.170;8.596;2023-02-11T14:29:32;14.40;97.50
21662;DHT22;10992;48.170;8.596;2023-02-11T14:34:56;13.60;99.20
21662;DHT22;10992;48.170;8.596;2023-02-11T14:40:32;14.10;99.90
21662;DHT22;10992;48.170;8.596;2023-02-11T14:43:11;14.40;99.90
21662;DHT22;10992;48.170;8.596;2023-02-11T14:45:40;14.50;99.90
21662;DHT22;10992;48.170;8.596;2023-02-11T14:48:15;14.60;99.90
21662;DHT22;10992;48.170;8.596;2023-02-11T14:50:50;14.30;99.90
21662;DHT22;10992;48.170;8.596;2023-02-11T14:53:21;14.40;99.90
21662;DHT22;10992;48.170;8.596;2023-02-11T14:55:51;14.00;99.90
21662;DHT22;10992;48.170;8.596;2023-02-11T14:58:32;13.80;99.90
21662;DHT22;10992;48.170;8.596;2023-02-11T15:01:02;13.70;99.90
21662;DHT22;10992;48.170;8.596;2023-02-11T15:03:40;13.60;99.90
21662;DHT22;10992;48.170;8.596;2023-02-11T15:06:21;13.40;99.90
21662;DHT22;10992;48.170;8.596;2023-02-11T15:08:55;12.70;99.90
21662;DHT22;10992;48.170;8.596;2023-02-11T15:11:24;12.40;99.90
21662;DHT22;10992;48.170;8.596;2023-02-11T15:13:51;12.90;99.90
21662;DHT22;10992;48.170;8.596;2023-02-11T15:16:22;13.10;99.90
21662;DHT22;10992;48.170;8.596;2023-02-11T15:18:56;12.60;99.90
21662;DHT22;10992;48.170;8.596;2023-02-11T15:21:26;11.80;99.90
21662;DHT22;10992;48.170;8.596;2023-02-11T15:24:04;11.60;99.90
21662;DHT22;10992;48.170;8.596;2023-02-11T15:26:32;10.20;99.90
21662;DHT22;10992;48.170;8.596;2023-02-11T15:28:59;9.80;99.90
21662;DHT22;10992;48.170;8.596;2023-02-11T15:31:26;9.40;99.90
21662;DHT22;10992;48.170;8.596;2023-02-11T15:33:54;9.10;99.90
21662;DHT22;10992;48.170;8.596;2023-02-11T15:36:23;8.80;99.90
21662;DHT22;10992;48.170;8.596;2023-02-11T15:39:17;8.80;99.90
21662;DHT22;10992;48.170;8.596;2023-02-11T15:41:45;8.80;99.90
21662;DHT22;10992;48.170;8.596;2023-02-11T15:44:29;8.70;99.90
21662;DHT22;10992;48.170;8.596;2023-02-11T15:46:57;8.60;99.90
21662;DHT22;10992;48.170;8.596;2023-02-11T15:49:25;8.50;99.90
21662;DHT22;10992;48.170;8.596;2023-02-11T15:51:53;8.30;99.90
21662;DHT22;10992;48.170;8.596;2023-02-11T15:54:25;8.30;99.90
21662;DHT22;10992;48.170;8.596;2023-02-11T15:56:58;8.00;99.90
21662;DHT22;10992;48.170;8.596;2023-02-11T15:59:33;7.90;99.90
21662;DHT22;10992;48.170;8.596;2023-02-11T16:02:28;7.80;99.90
21662;DHT22;10992;48.170;8.596;2023-02-11T16:05:05;7.50;99.90
21662;DHT22;10992;48.170;8.596;2023-02-11T16:07:42;7.30;99.90
21662;DHT22;10992;48.170;8.596;2023-02-11T16:10:28;7.10;99.90
21662;DHT22;10992;48.170;8.596;2023-02-11T16:13:17;6.80;99.90
21662;DHT22;10992;48.170;8.596;2023-02-11T16:15:56;6.60;99.90
21662;DHT22;10992;48.170;8.596;2023-02-11T16:18:31;6.30;99.90
21662;DHT22;10992;48.170;8.596;2023-02-11T16:21:14;5.90;99.90
21662;DHT22;10992;48.170;8.596;2023-02-11T16:23:49;5.60;99.90
21662;DHT22;10992;48.170;8.596;2023-02-11T16:26:30;5.30;99.90
21662;DHT22;10992;48.170;8.596;2023-02-11T16:29:06;5.10;99.90
21662;DHT22;10992;48.170;8.596;2023-02-11T16:31:37;4.90;99.90
21662;DHT22;10992;48.170;8.596;2023-02-11T16:34:17;4.80;99.90
21662;DHT22;10992;48.170;8.596;2023-02-11T16:36:47;4.60;99.90
21662;DHT22;10992;48.170;8.596;2023-02-11T16:39:16;4.60;99.90
21662;DHT22;10992;48.170;8.596;2023-02-11T16:41:43;4.50;99.90
21662;DHT22;10992;48.170;8.596;2023-02-11T16:44:10;4.40;99.90
21662;DHT22;10992;48.170;8.596;2023-02-11T16:46:37;4.30;99.90
21662;DHT22;10992;48.170;8.596;2023-02-11T16:49:16;4.20;99.90
21662;DHT22;10992;48.170;8.596;2023-02-11T16:51:46;4.10;99.90
21662;DHT22;10992;48.170;8.596;2023-02-11T16:54:15;4.00;99.90
21662;DHT22;10992;48.170;8.596;2023-02-11T16:56:43;3.90;99.90
21662;DHT22;10992;48.170;8.596;2023-02-11T16:59:10;3.90;99.90
21662;DHT22;10992;48.170;8.596;2023-02-11T17:01:38;3.80;99.90
21662;DHT22;10992;48.170;8.596;2023-02-11T17:04:06;3.70;99.90
21662;DHT22;10992;48.170;8.596;2023-02-11T17:06:36;3.60;99.90
21662;DHT22;10992;48.170;8.596;2023-02-11T17:09:03;3.50;99.90
21662;DHT22;10992;48.170;8.596;2023-02-11T17:11:32;3.30;99.90
21662;DHT22;10992;48.170;8.596;2023-02-11T17:13:59;3.20;99.90
21662;DHT22;10992;48.170;8.596;2023-02-11T17:16:26;3.10;99.90
21662;DHT22;10992;48.170;8.596;2023-02-11T17:18:55;3.00;99.90
21662;DHT22;10992;48.170;8.596;2023-02-11T17:21:22;2.90;99.90
21662;DHT22;10992;48.170;8.596;2023-02-11T17:23:54;2.80;99.90
21662;DHT22;10992;48.170;8.596;2023-02-11T17:26:21;2.80;99.90
21662;DHT22;10992;48.170;8.596;2023-02-11T17:28:48;2.70;99.90
21662;DHT22;10992;48.170;8.596;2023-02-11T17:31:15;2.60;99.90
21662;DHT22;10992;48.170;8.596;2023-02-11T17:33:42;2.40;99.90
21662;DHT22;10992;48.170;8.596;2023-02-11T17:36:09;2.20;99.90
21662;DHT22;10992;48.170;8.596;2023-02-11T17:38:36;2.10;99.90
21662;DHT22;10992;48.170;8.596;2023-02-11T17:41:04;2.20;99.90
21662;DHT22;10992;48.170;8.596;2023-02-11T17:43:31;2.00;99.90
21662;DHT22;10992;48.170;8.596;2023-02-11T17:45:58;1.90;99.90
21662;DHT22;10992;48.170;8.596;2023-02-11T17:48:25;1.80;99.90
21662;DHT22;10992;48.170;8.596;2023-02-11T17:50:52;1.70;99.90
21662;DHT22;10992;48.170;8.596;2023-02-11T17:53:19;1.70;99.90
21662;DHT22;10992;48.170;8.596;2023-02-11T17:55:46;1.60;99.90
21662;DHT22;10992;48.170;8.596;2023-02-11T17:58:13;1.50;99.90
21662;DHT22;10992;48.170;8.596;2023-02-11T18:00:40;1.40;99.90
21662;DHT22;10992;48.170;8.596;2023-02-11T18:03:09;1.30;99.90
21662;DHT22;10992;48.170;8.596;2023-02-11T18:05:38;1.20;99.90
21662;DHT22;10992;48.170;8.596;2023-02-11T18:08:06;1.10;99.90
21662;DHT22;10992;48.170;8.596;2023-02-11T18:10:33;1.10;99.90
21662;DHT22;10992;48.170;8.596;2023-02-11T18:13:00;1.10;99.90